createdAt,value
2018-12-03T00:00:51.046Z,19.07
2018-12-03T00:03:19.531Z,16.67
2018-12-03T00:05:47.394Z,18.02
2018-12-03T00:08:15.232Z,16.37
2018-12-03T00:10:43.209Z,15.93
2018-12-03T00:13:10.951Z,18.32
2018-12-03T00:15:38.764Z,19.65
2018-12-03T00:18:06.682Z,16.77
2018-12-03T00:20:34.504Z,17.75
2018-12-03T00:23:02.363Z,15.85
2018-12-03T00:25:30.203Z,16.50
2018-12-03T00:27:58.091Z,17.10
2018-12-03T00:30:25.958Z,16.00
2018-12-03T00:32:53.848Z,14.55
2018-12-03T00:35:21.707Z,13.38
2018-12-03T00:37:49.576Z,14.33
2018-12-03T00:40:17.450Z,14.38
2018-12-03T00:42:45.330Z,16.73
2018-12-03T00:45:13.238Z,15.30
2018-12-03T00:47:41.060Z,15.32
2018-12-03T00:50:08.818Z,16.30
2018-12-03T00:52:36.585Z,17.15
2018-12-03T00:55:05.930Z,14.50
2018-12-03T00:57:33.690Z,14.23
2018-12-03T01:00:01.453Z,14.98
2018-12-03T01:02:29.203Z,15.30
2018-12-03T01:04:56.953Z,14.30
2018-12-03T01:07:24.810Z,13.88
2018-12-03T01:09:52.564Z,15.70
2018-12-03T01:12:20.359Z,14.47
2018-12-03T01:14:48.358Z,14.68
2018-12-03T01:17:16.106Z,14.43
2018-12-03T01:19:43.829Z,13.28
2018-12-03T01:22:11.547Z,12.95
2018-12-03T01:24:39.363Z,12.55
2018-12-03T01:27:07.114Z,12.68
2018-12-03T01:29:34.896Z,13.03
2018-12-03T01:32:02.647Z,15.93
2018-12-03T01:34:30.360Z,12.28
2018-12-03T01:36:58.134Z,14.00
2018-12-03T01:39:25.940Z,14.00
2018-12-03T01:41:53.668Z,13.60
2018-12-03T01:44:21.415Z,12.53
2018-12-03T01:46:49.204Z,11.40
2018-12-03T01:49:16.986Z,12.03
2018-12-03T01:51:44.726Z,11.33
2018-12-03T01:54:12.487Z,12.93
2018-12-03T01:56:40.322Z,13.00
2018-12-03T01:59:08.104Z,11.90
2018-12-03T02:01:35.915Z,11.70
2018-12-03T02:04:03.752Z,11.95
2018-12-03T02:06:31.495Z,12.25
2018-12-03T02:08:59.228Z,12.98
2018-12-03T02:11:27.011Z,11.20
2018-12-03T02:13:54.823Z,12.28
2018-12-03T02:16:22.580Z,11.65
2018-12-03T02:18:50.339Z,12.80
2018-12-03T02:21:18.139Z,11.63
2018-12-03T02:23:45.886Z,11.55
2018-12-03T02:26:13.651Z,10.98
2018-12-03T02:28:41.423Z,10.60
2018-12-03T02:31:09.187Z,11.35
2018-12-03T02:33:36.949Z,10.60
2018-12-03T02:36:04.848Z,10.30
2018-12-03T02:38:32.597Z,10.15
2018-12-03T02:41:00.331Z,11.93
2018-12-03T02:43:28.069Z,10.30
2018-12-03T02:45:55.829Z,10.78
2018-12-03T02:48:23.570Z,10.65
2018-12-03T02:50:51.389Z,10.95
2018-12-03T02:53:19.247Z,10.93
2018-12-03T02:55:47.025Z,11.33
2018-12-03T02:58:14.784Z,11.60
2018-12-03T03:00:43.204Z,11.65
2018-12-03T03:03:10.996Z,11.28
2018-12-03T03:05:38.740Z,10.85
2018-12-03T03:08:06.650Z,10.43
2018-12-03T03:10:34.468Z,11.53
2018-12-03T03:13:02.249Z,11.08
2018-12-03T03:15:30.028Z,10.98
2018-12-03T03:17:57.793Z,11.65
2018-12-03T03:20:25.550Z,10.80
2018-12-03T03:22:53.275Z,10.58
2018-12-03T03:25:21.072Z,10.38
2018-12-03T03:27:48.780Z,10.85
2018-12-03T03:30:16.508Z,9.88
2018-12-03T03:32:44.266Z,10.85
2018-12-03T03:35:13.393Z,10.00
2018-12-03T03:37:41.132Z,9.80
2018-12-03T03:40:14.124Z,9.33
2018-12-03T03:42:42.864Z,10.28
2018-12-03T03:45:13.388Z,9.45
2018-12-03T03:47:41.167Z,9.63
2018-12-03T03:50:09.420Z,13.55
2018-12-03T03:52:37.519Z,9.58
2018-12-03T03:55:05.930Z,8.50
2018-12-03T03:57:33.700Z,8.25
2018-12-03T04:00:01.469Z,9.40
2018-12-03T04:02:29.220Z,9.68
2018-12-03T04:04:56.968Z,9.63
2018-12-03T04:07:24.700Z,9.93
2018-12-03T04:09:52.466Z,9.88
2018-12-03T04:12:20.234Z,9.83
2018-12-03T04:14:47.969Z,10.05
2018-12-03T04:17:15.708Z,9.55
2018-12-03T04:19:43.385Z,9.95
2018-12-03T04:22:11.122Z,8.40
2018-12-03T04:24:38.841Z,8.60
2018-12-03T04:27:06.579Z,8.88
2018-12-03T04:29:34.332Z,7.95
2018-12-03T04:32:02.010Z,8.10
2018-12-03T04:34:29.792Z,9.45
2018-12-03T04:36:57.570Z,9.30
2018-12-03T04:39:25.338Z,7.87
2018-12-03T04:41:53.083Z,8.60
2018-12-03T04:44:20.841Z,9.30
2018-12-03T04:46:48.557Z,9.15
2018-12-03T04:49:16.295Z,10.93
2018-12-03T04:51:44.037Z,9.75
2018-12-03T04:54:11.864Z,10.30
2018-12-03T04:56:39.663Z,9.45
2018-12-03T04:59:07.360Z,9.05
2018-12-03T05:01:35.103Z,11.10
2018-12-03T05:04:02.867Z,10.48
2018-12-03T05:06:30.668Z,11.60
2018-12-03T05:08:58.492Z,10.38
2018-12-03T05:11:26.231Z,12.58
2018-12-03T05:13:53.997Z,11.63
2018-12-03T05:16:21.676Z,9.60
2018-12-03T05:18:49.395Z,11.55
2018-12-03T05:21:17.206Z,12.13
2018-12-03T05:23:44.990Z,11.75
2018-12-03T05:26:12.696Z,31.40
2018-12-03T05:28:40.533Z,12.98
2018-12-03T05:31:08.272Z,9.10
2018-12-03T05:33:35.989Z,7.95
2018-12-03T05:36:03.782Z,8.33
2018-12-03T05:38:31.519Z,8.95
2018-12-03T05:40:59.238Z,9.00
2018-12-03T05:43:27.119Z,10.72
2018-12-03T05:45:54.885Z,10.45
2018-12-03T05:48:22.756Z,9.40
2018-12-03T05:50:50.508Z,10.72
2018-12-03T05:53:18.244Z,9.90
2018-12-03T05:55:45.934Z,8.75
2018-12-03T05:58:13.711Z,8.45
2018-12-03T06:00:41.431Z,8.50
2018-12-03T06:03:09.259Z,8.00
2018-12-03T06:05:38.455Z,8.15
2018-12-03T06:08:06.228Z,10.00
2018-12-03T06:10:33.951Z,9.70
2018-12-03T06:13:01.711Z,9.85
2018-12-03T06:15:29.449Z,9.00
2018-12-03T06:17:57.197Z,9.40
2018-12-03T06:20:24.961Z,7.92
2018-12-03T06:22:53.631Z,9.23
2018-12-03T06:25:24.504Z,7.92
2018-12-03T06:27:52.281Z,8.30
2018-12-03T06:30:21.380Z,7.72
2018-12-03T06:32:49.095Z,9.53
2018-12-03T06:35:17.333Z,7.83
2018-12-03T06:37:45.141Z,7.78
2018-12-03T06:40:17.870Z,8.13
2018-12-03T06:42:45.584Z,8.43
2018-12-03T06:45:14.637Z,8.00
2018-12-03T06:47:45.361Z,8.50
2018-12-03T06:50:13.092Z,8.75
2018-12-03T06:52:40.919Z,8.70
2018-12-03T06:55:09.745Z,10.28
2018-12-03T06:57:37.563Z,9.85
2018-12-03T07:00:08.983Z,8.85
2018-12-03T07:02:36.789Z,9.50
2018-12-03T07:05:05.940Z,7.65
2018-12-03T07:07:33.714Z,9.03
2018-12-03T07:10:01.557Z,9.23
2018-12-03T07:12:29.287Z,8.70
2018-12-03T07:14:57.051Z,8.70
2018-12-03T07:17:24.797Z,9.20
2018-12-03T07:19:52.710Z,12.50
2018-12-03T07:22:20.613Z,10.75
2018-12-03T07:24:48.495Z,9.63
2018-12-03T07:27:16.219Z,8.25
2018-12-03T07:29:43.940Z,9.25
2018-12-03T07:32:11.637Z,9.23
2018-12-03T07:34:39.452Z,9.50
2018-12-03T07:37:07.347Z,8.40
2018-12-03T07:39:35.190Z,9.95
2018-12-03T07:42:02.910Z,9.05
2018-12-03T07:44:30.607Z,11.08
2018-12-03T07:46:58.347Z,12.37
2018-12-03T07:49:26.102Z,12.05
2018-12-03T07:51:53.933Z,13.90
2018-12-03T07:54:21.784Z,11.05
2018-12-03T07:56:49.619Z,14.78
2018-12-03T07:59:17.348Z,11.20
2018-12-03T08:01:45.057Z,10.72
2018-12-03T08:04:12.806Z,10.58
2018-12-03T08:06:40.602Z,11.70
2018-12-03T08:09:09.169Z,9.78
2018-12-03T08:11:36.941Z,9.13
2018-12-03T08:14:05.032Z,9.25
2018-12-03T08:16:32.792Z,7.62
2018-12-03T08:19:00.597Z,9.03
2018-12-03T08:21:28.364Z,9.95
2018-12-03T08:24:01.594Z,9.08
2018-12-03T08:26:29.467Z,10.18
2018-12-03T08:28:57.213Z,9.15
2018-12-03T08:31:25.030Z,10.15
2018-12-03T08:33:52.762Z,10.43
2018-12-03T08:36:20.585Z,9.15
2018-12-03T08:38:48.392Z,10.25
2018-12-03T08:41:16.129Z,10.23
2018-12-03T08:43:43.902Z,11.15
2018-12-03T08:46:11.608Z,11.97
2018-12-03T08:48:40.406Z,9.65
2018-12-03T08:51:08.913Z,9.60
2018-12-03T08:53:36.683Z,10.70
2018-12-03T08:56:04.851Z,9.70
2018-12-03T08:58:32.597Z,10.75
2018-12-03T09:01:03.179Z,9.73
2018-12-03T09:03:30.948Z,10.82
2018-12-03T09:06:05.445Z,9.30
2018-12-03T09:08:33.170Z,9.48
2018-12-03T09:11:00.887Z,10.23
2018-12-03T09:13:28.625Z,10.08
2018-12-03T09:16:00.793Z,11.33
2018-12-03T09:18:37.804Z,12.33
2018-12-03T09:21:15.403Z,10.45
2018-12-03T09:23:44.386Z,9.93
2018-12-03T09:26:12.875Z,11.43
2018-12-03T09:28:40.665Z,10.63
2018-12-03T09:31:08.497Z,12.88
2018-12-03T09:33:36.287Z,9.43
2018-12-03T09:36:04.608Z,11.18
2018-12-03T09:38:42.483Z,10.03
2018-12-03T09:41:10.279Z,9.78
2018-12-03T09:43:41.515Z,11.35
2018-12-03T09:46:09.377Z,10.35
2018-12-03T09:48:37.119Z,9.98
2018-12-03T09:51:05.435Z,9.30
2018-12-03T09:53:33.163Z,9.28
2018-12-03T09:56:00.952Z,8.25
2018-12-03T09:58:28.719Z,8.53
2018-12-03T10:00:56.561Z,24.63
2018-12-03T10:03:26.829Z,8.98
2018-12-03T10:06:06.223Z,6.78
2018-12-03T10:08:34.895Z,8.65
2018-12-03T10:11:02.985Z,7.15
2018-12-03T10:13:31.391Z,6.45
2018-12-03T10:15:59.195Z,8.48
2018-12-03T10:18:26.961Z,7.90
2018-12-03T10:20:57.275Z,7.97
2018-12-03T10:23:25.017Z,7.17
2018-12-03T10:25:55.135Z,7.12
2018-12-03T10:28:23.432Z,8.70
2018-12-03T10:30:52.955Z,8.63
2018-12-03T10:33:31.902Z,7.53
2018-12-03T10:36:01.708Z,6.62
2018-12-03T10:38:32.300Z,6.87
2018-12-03T10:41:03.445Z,8.10
2018-12-03T10:43:31.217Z,4.00
2018-12-03T10:45:59.056Z,3.90
2018-12-03T10:48:26.853Z,11.45
2018-12-03T10:50:54.652Z,9.18
2018-12-03T10:53:24.726Z,2.83
2018-12-03T10:55:52.504Z,10.28
2018-12-03T10:58:20.378Z,7.58
2018-12-03T11:00:53.808Z,5.35
2018-12-03T11:03:27.260Z,6.85
2018-12-03T11:06:01.806Z,2.35
2018-12-03T11:08:29.668Z,1.10
2018-12-03T11:10:57.488Z,2.10
2018-12-03T11:13:25.356Z,1.82
2018-12-03T11:15:53.147Z,2.40
2018-12-03T11:18:21.302Z,2.00
2018-12-03T11:20:49.059Z,2.00
2018-12-03T11:23:19.079Z,1.83
2018-12-03T11:25:46.843Z,1.62
2018-12-03T11:28:16.206Z,1.93
2018-12-03T11:30:45.886Z,1.70
2018-12-03T11:33:15.979Z,1.70
2018-12-03T11:35:43.775Z,1.30
2018-12-03T11:38:15.145Z,1.98
2018-12-03T11:40:47.264Z,1.33
2018-12-03T11:43:15.116Z,18.95
2018-12-03T11:45:42.844Z,16.42
2018-12-03T11:48:10.610Z,36.35
2018-12-03T11:50:38.461Z,84.00
2018-12-03T11:53:06.270Z,50.77
2018-12-03T11:55:34.007Z,27.73
2018-12-03T11:58:01.721Z,7.17
2018-12-03T12:00:29.447Z,28.03
2018-12-03T12:02:57.235Z,14.27
2018-12-03T12:05:25.032Z,7.08
2018-12-03T12:07:52.778Z,11.00
2018-12-03T12:10:20.484Z,7.43
2018-12-03T12:12:48.240Z,2.60
2018-12-03T12:15:16.063Z,5.27
2018-12-03T12:17:43.826Z,6.30
2018-12-03T12:20:11.605Z,4.33
2018-12-03T12:22:39.378Z,3.27
2018-12-03T12:25:10.886Z,1.77
2018-12-03T12:27:41.063Z,3.80
2018-12-03T12:30:11.855Z,9.37
2018-12-03T12:32:39.589Z,2.20
2018-12-03T12:35:08.160Z,0.90
2018-12-03T12:37:35.856Z,1.73
2018-12-03T12:40:04.515Z,1.00
2018-12-03T12:42:32.268Z,1.27
2018-12-03T12:45:00.008Z,1.10
2018-12-03T12:47:27.719Z,0.87
2018-12-03T12:49:55.476Z,1.53
2018-12-03T12:52:23.212Z,1.27
2018-12-03T12:54:50.955Z,2.00
2018-12-03T12:57:18.643Z,2.27
2018-12-03T12:59:46.377Z,3.23
2018-12-03T13:02:15.494Z,3.73
2018-12-03T13:04:43.208Z,3.57
2018-12-03T13:07:10.905Z,4.07
2018-12-03T13:09:38.625Z,3.13
2018-12-03T13:12:07.459Z,3.20
2018-12-03T13:14:35.199Z,3.03
2018-12-03T13:17:02.973Z,2.87
2018-12-03T13:19:30.747Z,3.40
2018-12-03T13:21:58.518Z,2.87
2018-12-03T13:24:26.218Z,2.80
2018-12-03T13:26:53.988Z,2.20
2018-12-03T13:29:21.747Z,2.50
2018-12-03T13:31:49.471Z,2.70
2018-12-03T13:34:17.260Z,3.40
2018-12-03T13:36:44.992Z,3.30
2018-12-03T13:39:12.720Z,3.40
2018-12-03T13:41:40.454Z,2.60
2018-12-03T13:44:08.671Z,2.60
2018-12-03T13:46:36.450Z,2.70
2018-12-03T13:49:04.498Z,23.20
2018-12-03T13:51:32.298Z,38.93
2018-12-03T13:54:00.024Z,10.90
2018-12-03T13:56:27.758Z,5.60
2018-12-03T13:58:55.552Z,4.90
2018-12-03T14:01:24.331Z,5.20
2018-12-03T14:03:56.716Z,4.50
2018-12-03T14:07:32.024Z,5.10
2018-12-03T14:10:23.559Z,6.23
2018-12-03T14:14:08.185Z,8.43
2018-12-03T14:16:45.632Z,8.60
2018-12-03T14:19:18.248Z,8.70
2018-12-03T14:21:51.380Z,8.90
2018-12-03T14:24:20.165Z,8.07
2018-12-03T14:26:47.967Z,7.67
2018-12-03T14:29:15.728Z,7.93
2018-12-03T14:31:43.544Z,7.63
2018-12-03T14:34:20.492Z,8.20
2018-12-03T14:36:48.334Z,8.87
2018-12-03T14:39:16.102Z,10.37
2018-12-03T14:41:43.916Z,13.67
2018-12-03T14:44:11.885Z,11.00
2018-12-03T14:46:39.651Z,9.23
2018-12-03T14:49:07.484Z,8.17
2018-12-03T14:51:35.231Z,7.50
2018-12-03T14:54:02.995Z,8.17
2018-12-03T14:56:30.755Z,6.80
2018-12-03T14:58:58.640Z,7.03
2018-12-03T15:01:26.388Z,6.40
2018-12-03T15:03:54.115Z,6.93
2018-12-03T15:06:21.891Z,7.27
2018-12-03T15:08:49.640Z,6.63
2018-12-03T15:11:17.354Z,6.30
2018-12-03T15:13:45.143Z,7.00
2018-12-03T15:16:12.885Z,8.40
2018-12-03T15:18:40.665Z,9.40
2018-12-03T15:21:08.452Z,9.60
2018-12-03T15:23:36.469Z,8.03
2018-12-03T15:26:04.255Z,7.47
2018-12-03T15:28:32.036Z,7.87
2018-12-03T15:30:59.840Z,7.10
2018-12-03T15:33:27.602Z,7.90
2018-12-03T15:35:55.335Z,9.20
2018-12-03T15:38:23.112Z,9.10
2018-12-03T15:40:50.918Z,11.30
2018-12-03T15:43:18.643Z,9.80
2018-12-03T15:45:46.449Z,11.07
2018-12-03T15:48:14.165Z,11.50
2018-12-03T15:50:41.902Z,15.73
2018-12-03T15:53:09.666Z,10.13
2018-12-03T15:55:37.419Z,8.97
2018-12-03T15:58:05.132Z,8.60
2018-12-03T16:00:32.950Z,9.58
2018-12-03T16:03:02.309Z,10.60
2018-12-03T16:05:30.048Z,18.27
2018-12-03T16:07:57.779Z,11.73
2018-12-03T16:10:25.524Z,7.83
2018-12-03T16:12:53.257Z,8.30
2018-12-03T16:15:21.050Z,7.53
2018-12-03T16:17:48.769Z,7.60
2018-12-03T16:20:16.510Z,9.77
2018-12-03T16:22:44.261Z,11.03
2018-12-03T16:25:12.001Z,13.83
2018-12-03T16:27:39.757Z,11.53
2018-12-03T16:30:11.869Z,12.40
2018-12-03T16:32:39.643Z,10.87
2018-12-03T16:35:07.388Z,11.13
2018-12-03T16:37:35.122Z,14.53
2018-12-03T16:40:03.125Z,18.33
2018-12-03T16:42:30.836Z,13.10
2018-12-03T16:44:58.547Z,13.73
2018-12-03T16:47:26.300Z,11.10
2018-12-03T16:49:54.040Z,13.17
2018-12-03T16:52:21.789Z,16.57
2018-12-03T16:54:49.473Z,16.10
2018-12-03T16:57:17.214Z,10.80
2018-12-03T16:59:44.932Z,17.87
2018-12-03T17:02:12.651Z,12.30
2018-12-03T17:04:40.371Z,12.90
2018-12-03T17:07:13.936Z,12.80
2018-12-03T17:09:36.022Z,11.45
2018-12-03T17:12:03.741Z,11.83
2018-12-03T17:14:31.465Z,11.12
2018-12-03T17:16:59.209Z,12.40
2018-12-03T17:19:26.968Z,13.10
2018-12-03T17:22:06.175Z,14.55
2018-12-03T17:24:36.207Z,18.98
2018-12-03T17:27:04.323Z,93.72
2018-12-03T17:29:32.111Z,39.98
2018-12-03T17:31:59.854Z,21.35
2018-12-03T17:34:27.575Z,15.70
2018-12-03T17:36:55.307Z,20.00
2018-12-03T17:39:23.787Z,21.30
2018-12-03T17:41:51.522Z,19.30
2018-12-03T17:44:19.236Z,17.83
2018-12-03T17:46:46.988Z,24.45
2018-12-03T17:49:14.828Z,21.10
2018-12-03T17:51:42.840Z,21.60
2018-12-03T17:54:10.605Z,19.47
2018-12-03T17:56:38.895Z,16.93
2018-12-03T17:59:06.758Z,46.25
2018-12-03T18:01:34.516Z,65.65
2018-12-03T18:04:02.364Z,18.90
2018-12-03T18:06:30.282Z,15.55
2018-12-03T18:08:58.274Z,15.30
2018-12-03T18:11:26.170Z,16.40
2018-12-03T18:13:54.247Z,15.43
2018-12-03T18:16:22.244Z,15.63
2018-12-03T18:18:50.252Z,18.57
2018-12-03T18:21:18.195Z,16.73
2018-12-03T18:23:46.093Z,12.90
2018-12-03T18:26:13.920Z,12.58
2018-12-03T18:28:41.762Z,13.57
2018-12-03T18:31:09.804Z,18.73
2018-12-03T18:33:37.825Z,17.33
2018-12-03T18:36:05.751Z,15.13
2018-12-03T18:38:33.580Z,14.50
2018-12-03T18:41:03.497Z,12.00
2018-12-03T18:43:29.255Z,12.25
2018-12-03T18:45:57.385Z,12.82
2018-12-03T18:48:25.267Z,11.43
2018-12-03T18:50:54.208Z,11.60
2018-12-03T18:53:24.900Z,13.10
2018-12-03T18:55:53.114Z,12.53
2018-12-03T18:58:32.160Z,12.47
2018-12-03T19:01:00.050Z,13.05
2018-12-03T19:03:27.868Z,12.20
2018-12-03T19:05:55.664Z,13.18
2018-12-03T19:08:23.543Z,13.75
2018-12-03T19:10:51.401Z,12.90
2018-12-03T19:13:19.260Z,13.05
2018-12-03T19:15:47.152Z,12.05
2018-12-03T19:18:14.904Z,11.97
2018-12-03T19:20:42.864Z,13.62
2018-12-03T19:23:10.667Z,10.53
2018-12-03T19:25:38.375Z,10.48
2018-12-03T19:28:06.147Z,9.78
2018-12-03T19:30:33.934Z,10.53
2018-12-03T19:33:01.668Z,8.25
2018-12-03T19:35:29.462Z,9.05
2018-12-03T19:37:57.279Z,8.90
2018-12-03T19:40:25.063Z,8.75
2018-12-03T19:42:52.802Z,8.75
2018-12-03T19:45:21.682Z,9.25
2018-12-03T19:47:49.432Z,10.15
2018-12-03T19:50:17.325Z,9.87
2018-12-03T19:52:47.320Z,10.23
2018-12-03T19:55:15.470Z,9.58
2018-12-03T19:57:45.403Z,10.18
2018-12-03T20:00:14.202Z,9.23
2018-12-03T20:02:42.020Z,8.90
2018-12-03T20:05:15.320Z,9.48
2018-12-03T20:07:43.024Z,10.13
2018-12-03T20:10:10.761Z,12.23
2018-12-03T20:12:40.419Z,13.00
2018-12-03T20:15:10.396Z,11.10
2018-12-03T20:17:39.904Z,12.45
2018-12-03T20:20:11.958Z,13.00
2018-12-03T20:22:45.333Z,13.75
2018-12-03T20:25:16.969Z,11.63
2018-12-03T20:28:09.276Z,10.35
2018-12-03T20:31:16.135Z,13.32
2018-12-03T20:33:56.590Z,9.68
2018-12-03T20:37:07.017Z,9.38
2018-12-03T20:40:43.925Z,8.15
2018-12-03T20:43:17.483Z,8.68
2018-12-03T20:46:54.616Z,9.25
2018-12-03T20:49:28.313Z,10.45
2018-12-03T20:52:02.620Z,10.58
2018-12-03T20:54:30.372Z,8.85
2018-12-03T20:56:58.115Z,7.87
2018-12-03T20:59:25.922Z,8.50
2018-12-03T21:01:53.621Z,7.45
2018-12-03T21:04:22.265Z,8.68
2018-12-03T21:06:50.337Z,9.13
2018-12-03T21:09:18.118Z,10.80
2018-12-03T21:12:15.688Z,9.38
2018-12-03T21:14:41.978Z,9.95
2018-12-03T21:17:08.272Z,9.48
2018-12-03T21:19:34.561Z,10.90
2018-12-03T21:22:00.843Z,10.53
2018-12-03T21:24:27.135Z,9.38
2018-12-03T21:26:53.424Z,10.68
2018-12-03T21:29:19.703Z,10.90
2018-12-03T21:31:45.982Z,10.32
2018-12-03T21:34:12.300Z,12.15
2018-12-03T21:36:38.574Z,15.40
2018-12-03T21:39:05.100Z,13.13
2018-12-03T21:41:31.385Z,14.45
2018-12-03T21:43:57.635Z,14.35
2018-12-03T21:46:23.914Z,16.05
2018-12-03T21:48:50.194Z,13.65
2018-12-03T21:51:16.491Z,19.17
2018-12-03T21:53:42.775Z,20.12
2018-12-03T21:56:09.172Z,8.43
2018-12-03T21:58:35.451Z,6.60
2018-12-03T22:01:01.818Z,7.45
2018-12-03T22:03:28.189Z,6.65
2018-12-03T22:05:54.472Z,7.12
2018-12-03T22:08:20.787Z,6.70
2018-12-03T22:10:47.082Z,4.50
2018-12-03T22:13:20.330Z,8.83
2018-12-03T22:15:46.645Z,2.40
2018-12-03T22:18:12.941Z,1.07
2018-12-03T22:20:39.215Z,0.80
2018-12-03T22:23:05.530Z,0.80
2018-12-03T22:25:31.808Z,1.33
2018-12-03T22:27:58.081Z,0.70
2018-12-03T22:30:24.391Z,0.60
2018-12-03T22:32:50.640Z,0.90
2018-12-03T22:35:16.912Z,0.80
2018-12-03T22:37:43.190Z,0.97
2018-12-03T22:40:09.451Z,0.80
2018-12-03T22:42:35.728Z,0.80
2018-12-03T22:45:02.034Z,0.87
2018-12-03T22:47:28.331Z,0.80
2018-12-03T22:49:54.635Z,0.83
2018-12-03T22:52:21.049Z,0.70
2018-12-03T22:54:47.317Z,2.17
2018-12-03T22:57:13.621Z,1.53
2018-12-03T22:59:39.935Z,0.80
2018-12-03T23:02:06.222Z,0.60
2018-12-03T23:04:34.538Z,1.00
2018-12-03T23:07:00.820Z,1.22
2018-12-03T23:09:27.086Z,2.20
2018-12-03T23:11:53.358Z,1.80
2018-12-03T23:14:19.631Z,0.60
2018-12-03T23:16:45.924Z,0.50
2018-12-03T23:19:12.351Z,0.88
2018-12-03T23:21:38.639Z,1.75
2018-12-03T23:24:04.915Z,0.60
2018-12-03T23:26:31.191Z,0.50
2018-12-03T23:28:57.485Z,0.50
2018-12-03T23:31:23.765Z,0.95
2018-12-03T23:33:50.084Z,0.50
2018-12-03T23:36:16.471Z,2.15
2018-12-03T23:38:42.741Z,0.50
2018-12-03T23:41:09.039Z,0.42
2018-12-03T23:43:35.336Z,0.72
2018-12-03T23:46:01.637Z,0.60
2018-12-03T23:48:27.895Z,0.50
2018-12-03T23:50:54.159Z,0.50
2018-12-03T23:53:20.459Z,0.50
2018-12-03T23:55:46.763Z,0.60
2018-12-03T23:58:13.046Z,0.90
